Latest Weather Observations for Nerriga

IDN60801

Issued at 11:33 am EDT Sunday 1 February 2015 (issued every 30 minutes, with the page automatically refreshed every 10 minutes)

About weather observations | Map of weather stations | Latest weather observations for NSW | Other Formats
Station Details ID: 069128 Name: NERRIGA AWS Lat: -35.11 Lon: 150.08 Height: 622.0 m
Data from the previous 72 hours. | See also: Recent months at Nerriga
Date/Time
EDT
Temp
°C
App
Temp
°C
Dew
Point
Rel
Hum
%
Delta-T
°C
Wind Press
QNH
hPa
Press
MSL
hPa
Rain
since 9 am
mm
Dir
 
Spd
km/h
Gust
km/h
Spd
kts
Gust
kts
01/11:30am 19.7 19.9 11.7 60 4.6 SSE 2 6 1 3 1012.0 1009.4 0.0
01/11:00am 18.8 18.4 12.3 66 3.7 SSE 6 9 3 5 1012.1 1009.5 0.0
01/10:30am 18.5 18.6 11.6 64 3.9 ESE 2 6 1 3 1012.0 1009.3 0.0
01/10:00am 18.6 18.7 12.6 68 3.5 SE 4 9 2 5 1011.9 1009.1 0.0
01/09:30am 17.1 17.7 13.0 77 2.4 ESE 2 6 1 3 1011.7 1009.0 0.0
01/09:00am 15.7 15.9 13.2 85 1.4 SE 4 7 2 4 1011.6 1008.9 0.0
01/08:30am 14.2 15.4 13.9 98 0.2 CALM 0 0 0 0 1011.5 1008.8 0.0
01/08:00am 13.6 14.7 13.4 99 0.1 CALM 0 0 0 0 1011.2 1008.5 0.0
01/07:30am 12.8 13.6 12.6 99 0.1 CALM 0 0 0 0 1011.2 1008.5 0.0
01/07:00am 12.7 12.7 12.5 99 0.1 SSE 4 6 2 3 1010.8 1008.1 0.0
01/06:30am 11.8 11.2 11.6 99 0.1 SSE 6 7 3 4 1010.7 1008.0 0.0
01/06:00am 11.5 11.2 11.3 99 0.1 SSE 4 6 2 3 1010.5 1007.8 0.0
01/05:30am 11.4 10.6 11.1 98 0.2 SSE 6 6 3 3 1010.3 1007.5 0.0
01/05:00am 11.5 11.5 11.3 99 0.1 SSE 2 4 1 2 1010.2 1007.4 0.0
01/04:30am 10.8 9.9 10.5 98 0.2 SSE 6 7 3 4 1010.0 1007.3 0.0
01/04:00am 10.3 9.0 10.0 98 0.2 SSE 7 7 4 4 1009.9 1007.2 0.0
01/03:30am 10.4 9.3 10.1 98 0.2 SSE 6 7 3 4 1010.0 1007.3 0.0
01/03:00am 10.6 10.4 10.3 98 0.2 E 2 9 1 5 1010.2 1007.4 0.0
01/02:30am 12.5 13.2 12.2 98 0.2 CALM 0 0 0 0 1010.4 1007.6 0.0
01/02:00am 12.8 13.2 12.5 98 0.2 E 2 4 1 2 1010.6 1007.9 0.0
01/01:30am 13.2 12.9 12.6 96 0.3 E 6 7 3 4 1010.6 1007.9 0.0
01/01:00am 13.7 13.8 12.6 93 0.6 E 4 6 2 3 1010.8 1008.1 0.0
01/12:30am 14.2 13.9 12.6 90 0.9 E 6 9 3 5 1010.9 1008.2 0.0
01/12:00am 14.3 13.9 12.5 89 1.0 E 6 7 3 4 1011.2 1008.5 0.0
 
Date/Time
EDT
Temp
°C
App
Temp
°C
Dew
Point
Rel
Hum
%
Delta-T
°C
Wind Press
QNH
hPa
Press
MSL
hPa
Rain
since 9 am
mm
Dir
 
Spd
km/h
Gust
km/h
Spd
kts
Gust
kts
31/11:30pm 14.4 14.0 12.4 88 1.1 ESE 6 7 3 4 1011.3 1008.6 0.0
31/11:00pm 14.3 13.9 12.3 88 1.1 E 6 7 3 4 1011.2 1008.5 0.0
31/10:30pm 14.4 14.0 12.4 88 1.1 ESE 6 9 3 5 1011.2 1008.5 0.0
31/10:00pm 14.7 13.7 12.4 86 1.3 ESE 9 13 5 7 1010.9 1008.2 0.0
31/09:30pm 15.2 14.3 12.5 84 1.5 E 9 13 5 7 1010.7 1008.0 0.0
31/09:00pm 15.7 14.8 12.6 82 1.8 E 9 15 5 8 1010.2 1007.4 0.0
31/08:30pm 16.4 15.1 12.4 77 2.3 E 11 17 6 9 1009.7 1007.0 0.0
31/08:00pm 16.7 15.7 12.3 75 2.5 E 9 11 5 6 1009.4 1006.7 0.0
31/07:30pm 17.4 16.9 12.7 74 2.7 E 7 13 4 7 1009.2 1006.5 0.0
31/07:00pm 17.8 17.3 12.5 71 3.0 E 7 11 4 6 1008.9 1006.1 0.0
31/06:30pm 18.7 18.1 12.2 66 3.7 E 7 11 4 6 1008.3 1005.6 0.0
31/06:00pm 19.9 19.0 10.6 55 5.2 S 6 9 3 5 1007.9 1005.2 0.0
31/05:30pm 20.0 19.2 11.0 56 5.1 SSE 6 9 3 5 1007.9 1005.2 0.0
31/05:00pm 19.7 18.7 10.4 55 5.2 WSW 6 9 3 5 1007.9 1005.2 0.0
31/04:30pm 20.1 20.2 10.2 53 5.5 CALM 0 0 0 0 1007.9 1005.2 0.0
31/04:00pm 20.6 19.4 9.5 49 6.1 SW 6 9 3 5 1007.9 1005.2 0.0
31/03:30pm 20.4 19.8 10.5 53 5.5 SE 4 6 2 3 1007.9 1005.2 0.0
31/03:00pm 18.9 17.4 10.7 59 4.6 SE 9 13 5 7 1007.9 1005.2 0.0
31/02:30pm 18.9 17.1 11.0 60 4.4 SE 11 15 6 8 1007.8 1005.1 0.0
31/02:00pm 19.7 16.9 8.4 48 6.1 WNW 13 24 7 13 1007.8 1005.1 0.0
31/01:30pm 20.7 18.9 9.3 48 6.3 NW 9 15 5 8 1007.8 1005.1 0.0
31/01:00pm 19.9 18.3 8.6 48 6.1 W 7 13 4 7 1008.1 1005.4 0.0
31/12:30pm 19.3 16.9 8.6 50 5.7 W 11 17 6 9 1008.3 1005.6 0.0
31/12:00pm 19.9 17.6 8.9 49 6.0 W 11 19 6 10 1008.7 1005.9 0.0
31/11:30am 19.6 17.6 10.3 55 5.2 NNW 11 17 6 9 1009.0 1006.2 0.0
31/11:00am 19.0 17.4 10.3 57 4.8 WNW 9 19 5 10 1009.2 1006.5 0.0
31/10:30am 17.5 16.4 9.9 61 4.1 NW 6 9 3 5 1009.3 1006.6 0.0
31/10:00am 16.4 15.3 9.8 65 3.6 NW 6 11 3 6 1009.4 1006.7 0.0
31/09:30am 15.0 13.4 8.9 67 3.2 NNW 7 11 4 6 1009.3 1006.6 0.0
31/09:00am 14.3 13.8 9.5 73 2.6 SW 2 4 1 2 1009.3 1006.6 0.4
31/08:30am 11.6 11.4 9.0 84 1.3 CALM 0 0 0 0 1009.5 1006.8 0.4
31/08:00am 10.6 9.7 9.4 92 0.6 SSW 4 7 2 4 1009.4 1006.7 0.4
31/07:30am 8.6 8.2 8.3 98 0.1 CALM 0 2 0 1 1009.1 1006.4 0.4
31/07:00am 7.7 7.1 7.4 98 0.1 CALM 0 0 0 0 1008.9 1006.1 0.4
31/06:30am 7.0 6.2 6.7 98 0.1 CALM 0 0 0 0 1008.7 1005.9 0.4
31/06:00am 7.2 6.5 6.9 98 0.1 CALM 0 0 0 0 1008.2 1005.5 0.4
31/05:30am 7.5 6.5 7.2 98 0.1 SSW 2 2 1 1 1008.1 1005.4 0.4
31/05:00am 8.0 7.0 7.4 96 0.3 SSW 2 4 1 2 1008.0 1005.3 0.4
31/04:30am 8.9 8.5 8.1 95 0.4 CALM 0 0 0 0 1008.0 1005.3 0.4
31/04:00am 9.3 9.0 8.7 96 0.3 CALM 0 0 0 0 1008.1 1005.4 0.4
31/03:30am 8.9 8.6 8.5 97 0.2 CALM 0 0 0 0 1008.2 1005.5 0.4
31/03:00am 9.5 9.1 8.3 92 0.6 CALM 0 0 0 0 1008.5 1005.7 0.4
31/02:30am 10.3 9.9 8.4 88 1.0 CALM 0 0 0 0 1008.6 1005.8 0.4
31/02:00am 10.4 10.0 8.3 87 1.1 CALM 0 0 0 0 1008.7 1005.9 0.4
31/01:30am 10.8 10.3 8.0 83 1.4 CALM 0 0 0 0 1009.0 1006.2 0.4
31/01:00am 10.8 10.2 7.3 79 1.7 CALM 0 0 0 0 1009.1 1006.4 0.4
31/12:30am 12.0 10.3 7.7 75 2.2 SSW 6 7 3 4 1009.3 1006.6 0.4
31/12:00am 12.5 10.7 7.8 73 2.4 SW 7 9 4 5 1009.5 1006.8 0.4
 
Date/Time
EDT
Temp
°C
App
Temp
°C
Dew
Point
Rel
Hum
%
Delta-T
°C
Wind Press
QNH
hPa
Press
MSL
hPa
Rain
since 9 am
mm
Dir
 
Spd
km/h
Gust
km/h
Spd
kts
Gust
kts
30/11:30pm 13.0 11.4 7.9 71 2.6 S 6 7 3 4 1009.6 1006.9 0.4
30/11:00pm 13.6 11.1 8.0 69 2.9 S 11 15 6 8 1009.6 1006.9 0.4
30/10:30pm 13.9 12.0 7.7 66 3.2 S 7 9 4 5 1009.7 1007.0 0.4
30/10:00pm 14.4 12.2 7.9 65 3.4 SSW 9 11 5 6 1009.7 1007.0 0.4
30/09:30pm 14.9 12.9 8.6 66 3.3 SSW 9 15 5 8 1009.6 1006.9 0.4
30/09:00pm 14.5 13.0 9.1 70 2.9 SW 7 11 4 6 1009.3 1006.6 0.4
30/08:30pm 15.3 13.0 9.0 66 3.3 SW 11 15 6 8 1008.9 1006.1 0.4
30/08:00pm 15.8 13.1 8.8 63 3.7 SW 13 20 7 11 1008.9 1006.1 0.4
30/07:30pm 16.4 13.3 8.9 61 4.0 SSW 15 28 8 15 1008.7 1005.9 0.4
30/07:00pm 16.6 13.7 9.5 63 3.8 SW 15 22 8 12 1008.5 1005.7 0.4
30/06:30pm 16.9 13.9 9.3 61 4.1 WSW 15 26 8 14 1008.1 1005.4 0.4
30/06:00pm 17.0 14.0 9.4 61 4.1 WSW 15 24 8 13 1008.0 1005.3 0.4
30/05:30pm 16.6 14.2 10.0 65 3.6 WSW 13 24 7 13 1007.9 1005.2 0.4
30/05:00pm 16.3 13.8 9.7 65 3.6 WSW 13 22 7 12 1008.1 1005.4 0.4
30/04:30pm 16.6 12.7 9.3 62 3.9 SW 20 32 11 17 1008.3 1005.6 0.2
30/04:00pm 18.0 13.9 8.0 52 5.3 SW 19 32 10 17 1008.0 1005.3 0.2
30/03:30pm 18.5 16.9 10.3 59 4.5 WSW 9 17 5 9 1007.9 1005.2 0.2
30/03:00pm 20.0 15.5 8.4 47 6.2 SW 22 37 12 20 1008.0 1005.3 0.0
30/02:30pm 18.6 13.5 7.7 49 5.7 SW 24 33 13 18 1008.3 1005.6 0.0
30/02:00pm 19.6 14.9 9.2 51 5.7 WSW 24 39 13 21 1008.6 1005.8 0.0
30/01:30pm 19.3 15.0 9.2 52 5.5 WSW 22 33 12 18 1008.8 1006.0 0.0
30/01:00pm 17.9 13.5 7.6 51 5.4 SW 20 28 11 15 1009.0 1006.2 0.0
30/12:30pm 18.4 14.5 8.7 53 5.2 SW 19 33 10 18 1009.2 1006.5 0.0
30/12:00pm 17.0 12.7 7.9 55 4.8 WSW 20 32 11 17 1009.5 1006.8 0.0
30/11:30am 16.5 13.5 9.4 63 3.8 WSW 15 24 8 13 1009.9 1007.2 0.0
30/11:00am 15.7 12.2 8.9 64 3.6 W 17 26 9 14 1010.4 1007.6 0.0
30/10:30am 13.9 11.1 8.5 70 2.8 WSW 13 19 7 10 1010.5 1007.8 0.0
30/10:00am 12.4 9.1 8.1 75 2.2 WSW 15 22 8 12 1010.6 1007.9 0.0
30/09:30am 11.6 9.4 7.9 78 1.9 WSW 9 13 5 7 1010.8 1008.1 0.0
30/09:00am 10.8 8.4 7.1 78 1.8 WSW 9 17 5 9 1011.0 1008.3 0.8
30/08:30am 10.7 8.7 7.2 79 1.7 WSW 7 11 4 6 1010.8 1008.1 0.8
30/08:00am 9.8 8.4 7.2 84 1.3 SW 4 7 2 4 1010.8 1008.1 0.8
30/07:30am 8.9 6.8 6.0 82 1.4 SW 6 9 3 5 1010.8 1008.1 0.8
30/07:00am 7.5 5.4 6.0 90 0.7 SW 6 9 3 5 1010.5 1007.8 0.8
30/06:30am 6.3 4.1 5.4 94 0.4 SW 6 7 3 4 1010.4 1007.6 0.8
30/06:00am 5.8 3.3 4.9 94 0.4 SW 7 9 4 5 1010.2 1007.4 0.8
30/05:30am 7.0 4.9 5.9 93 0.5 SW 6 7 3 4 1010.2 1007.4 0.8
30/05:00am 6.3 3.8 4.9 91 0.6 SW 7 9 4 5 1010.2 1007.4 0.8
30/04:30am 7.3 5.0 5.9 91 0.7 SW 7 9 4 5 1010.3 1007.5 0.8
30/04:00am 7.7 6.0 6.0 89 0.8 SW 4 7 2 4 1010.6 1007.9 0.8
30/03:30am 7.1 5.0 6.0 93 0.5 SW 6 9 3 5 1010.8 1008.1 0.8
30/03:00am 7.5 5.8 6.1 91 0.7 SW 4 6 2 3 1011.2 1008.5 0.8
30/02:30am 8.1 6.0 6.6 90 0.7 SSW 7 13 4 7 1011.2 1008.5 0.8
30/02:00am 7.8 5.8 6.3 90 0.7 SSW 6 13 3 7 1011.6 1008.9 0.8
30/01:30am 7.9 5.8 6.7 92 0.6 SSW 7 9 4 5 1012.0 1009.3 0.8
30/01:00am 8.5 6.7 7.0 90 0.7 SSW 6 9 3 5 1012.4 1009.7 0.8
30/12:30am 8.8 6.9 7.4 91 0.7 SSW 7 11 4 6 1012.6 1009.9 0.8
30/12:00am 9.3 7.4 7.7 90 0.8 SSW 7 11 4 6 1012.9 1010.2 0.8
 
Date/Time
EDT
Temp
°C
App
Temp
°C
Dew
Point
Rel
Hum
%
Delta-T
°C
Wind Press
QNH
hPa
Press
MSL
hPa
Rain
since 9 am
mm
Dir
 
Spd
km/h
Gust
km/h
Spd
kts
Gust
kts
29/11:30pm 9.5 7.2 7.6 88 0.9 SSW 9 11 5 6 1013.1 1010.4 0.8
29/11:00pm 10.0 7.6 8.6 91 0.7 SSW 11 17 6 9 1013.3 1010.7 0.8
29/10:30pm 10.4 8.2 9.5 94 0.5 S 11 15 6 8 1013.7 1011.0 0.8
29/10:00pm 10.6 9.8 9.5 93 0.6 S 4 7 2 4 1013.8 1011.1 0.8
29/09:30pm 10.7 9.2 9.1 90 0.8 S 7 9 4 5 1013.4 1010.8 0.8
29/09:00pm 11.3 9.8 9.2 87 1.1 S 7 9 4 5 1013.4 1010.8 0.8
29/08:30pm 11.8 10.4 9.4 85 1.3 S 7 13 4 7 1013.4 1010.8 0.8
29/08:00pm 12.4 10.7 9.8 84 1.4 S 9 17 5 9 1013.3 1010.7 0.8
29/07:30pm 13.0 9.7 9.6 80 1.8 SSE 17 24 9 13 1013.0 1010.3 0.8
29/07:00pm 13.6 9.7 9.5 76 2.2 SSE 20 30 11 16 1012.9 1010.2 0.8
29/06:30pm 13.2 9.6 10.6 84 1.4 SSE 20 32 11 17 1012.8 1010.1 0.8
29/06:00pm 15.3 11.1 9.7 69 3.0 SE 22 33 12 18 1012.4 1009.7 0.6
29/05:30pm 16.6 14.3 10.5 67 3.3 SE 13 20 7 11 1012.3 1009.6 0.6
29/05:00pm 14.7 9.5 8.9 68 3.1 SE 26 35 14 19 1012.6 1009.9 0.4
29/04:30pm 16.4 12.2 8.1 58 4.3 SSE 20 28 11 15 1012.5 1009.8 0.2
29/04:00pm 17.2 13.0 7.5 53 5.0 S 19 28 10 15 1012.5 1009.8 0.2
29/03:30pm 17.3 14.2 7.4 52 5.1 S 13 20 7 11 1012.8 1010.1 0.2
29/03:00pm 17.0 12.6 7.6 54 4.9 SSE 20 30 11 16 1013.1 1010.4 0.2
29/02:30pm 17.4 13.7 8.0 54 4.9 SSW 17 28 9 15 1013.4 1010.8 0.2
29/02:00pm 17.4 13.3 8.8 57 4.6 SSW 20 33 11 18 1013.7 1011.0 0.2
29/01:30pm 15.7 11.4 7.0 56 4.4 S 19 28 10 15 1014.1 1011.4 0.2
29/01:00pm 15.7 12.6 7.2 57 4.3 S 13 20 7 11 1014.5 1011.8 0.2
29/12:30pm 15.2 11.1 6.0 54 4.6 SSW 17 32 9 17 1014.6 1011.9 0.2
29/12:00pm 16.2 12.8 7.7 57 4.4 SSW 15 26 8 14 1014.6 1011.9 0.2

Other Formats:

Comma delimited format used in spreadsheet applications
http://www.bom.gov.au/fwo/IDN60801/IDN60801.94943.axf

JavaScript Object Notation format (JSON) in row-major order
http://www.bom.gov.au/fwo/IDN60801/IDN60801.94943.json